Time;durP1;ratioP1;P1;durP2;ratioP2;P2;SDS_P1;SDS_P2;PMS_P1;PMS_P2;Temp;Humidity;BMP_temperature;BMP_pressure;BME280_temperature;BME280_humidity;BME280_pressure;Samples;Min_cycle;Max_cycle;Signal;HPM_P1;HPM_P2
2023/03/02 00:01:42;;;;;;;88.28;21.80;;;;;;;;;;5074298;28;20233;-66
2023/03/02 00:04:12;;;;;;;91.70;23.83;;;;;;;;;;5074337;28;20205;-67
2023/03/02 00:06:39;;;;;;;89.20;21.45;;;;;;;;;;5074198;28;20232;-67
2023/03/02 00:09:06;;;;;;;89.15;21.27;;;;;;;;;;5073882;28;20205;-67
2023/03/02 00:11:34;;;;;;;90.00;23.75;;;;;;;;;;5074220;28;20638;-67
2023/03/02 00:14:01;;;;;;;88.47;21.60;;;;;;;;;;5074230;28;20533;-67
2023/03/02 00:16:28;;;;;;;89.22;22.55;;;;;;;;;;5073966;28;20222;-67
2023/03/02 00:18:57;;;;;;;91.47;23.35;;;;;;;;;;5073526;28;20205;-65
2023/03/02 00:21:24;;;;;;;90.30;23.10;;;;;;;;;;5074107;28;20209;-67
2023/03/02 00:23:51;;;;;;;89.10;22.50;;;;;;;;;;5073870;28;20230;-65
2023/03/02 00:26:19;;;;;;;92.95;23.80;;;;;;;;;;5073525;28;20230;-65
2023/03/02 00:28:46;;;;;;;94.05;22.60;;;;;;;;;;5073392;28;20208;-67
2023/03/02 00:31:13;;;;;;;90.32;21.65;;;;;;;;;;5073662;28;20224;-67
2023/03/02 00:33:40;;;;;;;90.28;23.77;;;;;;;;;;5073932;28;20234;-67
2023/03/02 00:36:14;;;;;;;90.55;22.67;;;;;;;;;;5073542;28;20218;-67
2023/03/02 00:38:41;;;;;;;89.28;21.10;;;;;;;;;;5073165;28;20208;-65
2023/03/02 00:41:08;;;;;;;91.35;23.58;;;;;;;;;;5073533;28;20209;-65
2023/03/02 00:43:35;;;;;;;92.72;23.20;;;;;;;;;;5073367;28;20205;-64
2023/03/02 00:46:08;;;;;;;94.60;25.70;;;;;;;;;;5073196;28;20233;-65
2023/03/02 00:48:35;;;;;;;96.72;26.08;;;;;;;;;;5073169;28;20216;-65
2023/03/02 00:51:02;;;;;;;87.40;22.67;;;;;;;;;;5073433;28;20203;-65
2023/03/02 00:53:31;;;;;;;92.43;23.45;;;;;;;;;;5073279;28;20566;-64
2023/03/02 00:55:58;;;;;;;90.43;24.10;;;;;;;;;;5073226;28;20598;-65
2023/03/02 00:58:26;;;;;;;93.40;25.45;;;;;;;;;;5073018;28;20212;-65
2023/03/02 01:00:53;;;;;;;90.55;24.60;;;;;;;;;;5072828;28;20212;-65
2023/03/02 01:03:20;;;;;;;90.65;24.58;;;;;;;;;;5073211;28;20201;-65
2023/03/02 01:05:48;;;;;;;87.30;22.15;;;;;;;;;;5072958;28;20226;-65
2023/03/02 01:08:15;;;;;;;89.50;23.67;;;;;;;;;;5072751;28;20209;-65
2023/03/02 01:10:43;;;;;;;93.65;25.80;;;;;;;;;;5072702;28;20208;-65
2023/03/02 01:13:11;;;;;;;96.65;28.58;;;;;;;;;;5073080;28;20207;-65
2023/03/02 01:15:38;;;;;;;92.20;25.58;;;;;;;;;;5072984;28;20226;-65
2023/03/02 01:18:05;;;;;;;93.15;23.33;;;;;;;;;;5072680;28;20205;-65
2023/03/02 01:20:32;;;;;;;93.05;22.98;;;;;;;;;;5072593;28;20214;-65
2023/03/02 01:22:59;;;;;;;92.45;23.15;;;;;;;;;;5072584;28;20215;-65
2023/03/02 01:25:26;;;;;;;89.00;23.38;;;;;;;;;;5072251;28;20690;-65
2023/03/02 01:27:55;;;;;;;90.57;23.35;;;;;;;;;;5072799;28;20206;-65
2023/03/02 01:30:22;;;;;;;89.88;24.05;;;;;;;;;;5072196;28;20216;-65
2023/03/02 01:32:49;;;;;;;94.38;25.08;;;;;;;;;;5072551;28;20201;-65
2023/03/02 01:35:16;;;;;;;91.15;25.60;;;;;;;;;;5072423;28;20225;-65
2023/03/02 01:37:43;;;;;;;95.60;22.80;;;;;;;;;;5072248;28;20305;-65
2023/03/02 01:43:17;;;;;;;92.30;23.85;;;;;;;;;;5072330;28;20314;-65
2023/03/02 01:45:50;;;;;;;93.82;25.05;;;;;;;;;;5072405;28;20231;-65
2023/03/02 01:48:19;;;;;;;94.47;22.98;;;;;;;;;;5072014;28;20642;-65
2023/03/02 01:50:46;;;;;;;96.63;25.90;;;;;;;;;;5072156;28;20205;-65
2023/03/02 01:53:14;;;;;;;92.05;23.67;;;;;;;;;;5071941;28;20205;-65
2023/03/02 01:55:43;;;;;;;93.05;25.58;;;;;;;;;;5072107;28;20221;-65
2023/03/02 01:58:10;;;;;;;94.55;23.60;;;;;;;;;;5071931;28;20299;-65
2023/03/02 02:00:39;;;;;;;91.07;23.65;;;;;;;;;;5071782;28;20201;-65
2023/03/02 02:03:09;;;;;;;101.38;24.55;;;;;;;;;;5072192;28;20205;-64
2023/03/02 02:05:38;;;;;;;90.68;24.58;;;;;;;;;;5072014;28;20241;-64
2023/03/02 02:08:06;;;;;;;92.35;25.17;;;;;;;;;;5071830;28;20206;-64
2023/03/02 02:10:34;;;;;;;94.85;26.65;;;;;;;;;;5071704;28;20202;-64
2023/03/02 02:13:01;;;;;;;92.95;23.05;;;;;;;;;;5071794;28;20209;-67
2023/03/02 02:15:28;;;;;;;94.63;24.33;;;;;;;;;;5071663;28;20660;-67
2023/03/02 02:17:57;;;;;;;88.45;23.20;;;;;;;;;;5071692;28;20680;-65
2023/03/02 02:20:29;;;;;;;93.13;24.52;;;;;;;;;;5071473;28;20300;-64
2023/03/02 02:23:03;;;;;;;96.38;25.67;;;;;;;;;;5071698;28;20201;-65
2023/03/02 02:25:38;;;;;;;92.18;23.48;;;;;;;;;;5071535;28;20729;-64
2023/03/02 02:28:09;;;;;;;93.00;25.15;;;;;;;;;;5071895;28;20238;-64
2023/03/02 02:30:37;;;;;;;88.07;23.52;;;;;;;;;;5071652;28;20578;-64
2023/03/02 02:33:05;;;;;;;93.32;25.35;;;;;;;;;;5071754;28;20310;-64
2023/03/02 02:35:33;;;;;;;91.13;23.33;;;;;;;;;;5071812;28;20307;-65
2023/03/02 02:38:03;;;;;;;96.95;26.17;;;;;;;;;;5071493;28;20207;-64
2023/03/02 02:40:42;;;;;;;99.40;25.20;;;;;;;;;;5071191;28;20293;-64
2023/03/02 02:43:13;;;;;;;96.85;23.45;;;;;;;;;;5071691;28;20231;-64
2023/03/02 02:45:40;;;;;;;92.15;24.33;;;;;;;;;;5071732;28;20249;-65
2023/03/02 02:48:09;;;;;;;98.10;24.90;;;;;;;;;;5069683;28;20210;-64
2023/03/02 02:50:37;;;;;;;93.68;25.60;;;;;;;;;;5071312;28;20201;-65
2023/03/02 02:53:06;;;;;;;93.05;26.30;;;;;;;;;;5071481;28;20205;-64
2023/03/02 02:55:33;;;;;;;93.60;23.73;;;;;;;;;;5071276;28;20232;-65
2023/03/02 02:58:08;;;;;;;97.82;25.42;;;;;;;;;;5071513;28;20205;-65
2023/03/02 03:00:37;;;;;;;112.15;27.63;;;;;;;;;;5071228;28;20262;-64
2023/03/02 03:03:06;;;;;;;98.43;26.20;;;;;;;;;;5071419;28;20557;-64
2023/03/02 03:05:33;;;;;;;96.90;25.08;;;;;;;;;;5071237;28;20225;-64
2023/03/02 03:08:07;;;;;;;97.20;25.90;;;;;;;;;;5071132;28;20538;-64
2023/03/02 03:10:38;;;;;;;98.72;25.83;;;;;;;;;;5071234;28;20206;-65
2023/03/02 03:13:06;;;;;;;100.72;27.25;;;;;;;;;;5071206;28;20209;-65
2023/03/02 03:15:33;;;;;;;94.68;24.73;;;;;;;;;;5071228;28;20225;-65
2023/03/02 03:18:01;;;;;;;98.15;27.00;;;;;;;;;;5070975;28;20202;-65
2023/03/02 03:20:29;;;;;;;100.15;26.95;;;;;;;;;;5070836;28;20202;-64
2023/03/02 03:22:58;;;;;;;97.15;25.20;;;;;;;;;;5071061;28;20646;-65
2023/03/02 03:25:26;;;;;;;97.68;26.05;;;;;;;;;;5073233;28;20241;-65
2023/03/02 03:27:53;;;;;;;99.25;26.92;;;;;;;;;;5074665;28;20283;-64
2023/03/02 03:30:21;;;;;;;98.85;27.02;;;;;;;;;;5074558;28;20209;-65
2023/03/02 03:32:48;;;;;;;104.78;27.35;;;;;;;;;;5074746;28;20210;-65
2023/03/02 03:35:16;;;;;;;103.13;28.05;;;;;;;;;;5074473;28;20226;-64
2023/03/02 03:37:44;;;;;;;104.95;28.60;;;;;;;;;;5074425;28;20205;-65
2023/03/02 03:40:11;;;;;;;97.30;25.40;;;;;;;;;;5074394;28;20304;-65
2023/03/02 03:42:39;;;;;;;96.63;24.58;;;;;;;;;;5074732;28;20580;-65
2023/03/02 03:45:07;;;;;;;99.80;26.35;;;;;;;;;;5074506;28;20278;-65
2023/03/02 03:47:34;;;;;;;94.93;26.45;;;;;;;;;;5074312;28;20261;-64
2023/03/02 03:50:01;;;;;;;97.35;25.05;;;;;;;;;;5073935;28;20209;-64
2023/03/02 03:52:30;;;;;;;96.78;25.27;;;;;;;;;;5074253;28;20232;-65
2023/03/02 03:54:57;;;;;;;98.45;27.45;;;;;;;;;;5074391;28;20201;-65
2023/03/02 03:57:24;;;;;;;97.25;28.00;;;;;;;;;;5074418;28;20197;-65
2023/03/02 03:59:51;;;;;;;102.25;26.98;;;;;;;;;;5073926;28;20202;-64
2023/03/02 04:02:19;;;;;;;96.40;25.65;;;;;;;;;;5074179;28;20583;-64
2023/03/02 04:04:46;;;;;;;96.22;25.40;;;;;;;;;;5074099;28;20646;-65
2023/03/02 04:07:13;;;;;;;91.95;24.65;;;;;;;;;;5074199;28;20255;-65
2023/03/02 04:09:41;;;;;;;98.00;26.90;;;;;;;;;;5073846;28;20209;-65
2023/03/02 04:12:09;;;;;;;92.93;24.73;;;;;;;;;;5074169;28;20201;-65
2023/03/02 04:14:37;;;;;;;102.50;26.55;;;;;;;;;;5073969;28;20588;-65
2023/03/02 04:17:04;;;;;;;104.43;29.05;;;;;;;;;;5073852;28;20233;-65
2023/03/02 04:19:34;;;;;;;99.28;25.48;;;;;;;;;;5073514;28;20297;-65
2023/03/02 04:22:02;;;;;;;97.10;25.63;;;;;;;;;;5073965;28;20205;-65
2023/03/02 04:24:30;;;;;;;98.78;25.27;;;;;;;;;;5073751;28;20217;-65
2023/03/02 04:26:58;;;;;;;96.72;26.23;;;;;;;;;;5073693;28;20724;-65
2023/03/02 04:29:25;;;;;;;95.30;25.40;;;;;;;;;;5073331;28;20209;-64
2023/03/02 04:31:52;;;;;;;102.65;26.20;;;;;;;;;;5073863;28;20212;-64
2023/03/02 04:34:19;;;;;;;98.72;26.45;;;;;;;;;;5073734;28;20201;-65
2023/03/02 04:36:46;;;;;;;98.78;26.60;;;;;;;;;;5073137;28;20628;-65
2023/03/02 04:39:15;;;;;;;104.70;26.48;;;;;;;;;;5073328;28;20274;-64
2023/03/02 04:41:42;;;;;;;109.18;30.15;;;;;;;;;;5073457;28;20212;-67
2023/03/02 04:44:11;;;;;;;105.10;29.25;;;;;;;;;;5073323;28;20209;-65
2023/03/02 04:46:38;;;;;;;98.13;26.30;;;;;;;;;;5073450;28;20320;-64
2023/03/02 04:49:05;;;;;;;105.95;28.55;;;;;;;;;;5073143;28;20205;-64
2023/03/02 04:51:34;;;;;;;105.15;27.88;;;;;;;;;;5073308;28;20209;-64
2023/03/02 04:54:02;;;;;;;100.68;25.10;;;;;;;;;;5073240;28;20589;-65
2023/03/02 04:56:29;;;;;;;96.70;26.70;;;;;;;;;;5072998;28;20222;-65
2023/03/02 04:58:56;;;;;;;94.75;23.45;;;;;;;;;;5073115;28;20209;-65
2023/03/02 05:01:25;;;;;;;100.20;27.05;;;;;;;;;;5073222;28;20212;-65
2023/03/02 05:03:52;;;;;;;102.03;29.83;;;;;;;;;;5072984;28;20623;-65
2023/03/02 05:06:20;;;;;;;108.95;28.42;;;;;;;;;;5072968;28;20221;-65
2023/03/02 05:08:48;;;;;;;98.25;26.80;;;;;;;;;;5072641;28;20207;-64
2023/03/02 05:11:24;;;;;;;104.97;30.08;;;;;;;;;;5072786;28;20566;-64
2023/03/02 05:13:52;;;;;;;105.78;33.90;;;;;;;;;;5072967;28;20581;-64
2023/03/02 05:16:19;;;;;;;101.68;29.13;;;;;;;;;;5072976;28;20231;-64
2023/03/02 05:18:48;;;;;;;105.15;30.83;;;;;;;;;;5072371;28;20221;-65
2023/03/02 05:21:16;;;;;;;98.40;28.50;;;;;;;;;;5072547;28;20205;-65
2023/03/02 05:23:43;;;;;;;102.13;27.38;;;;;;;;;;5072593;28;20215;-65
2023/03/02 05:26:11;;;;;;;103.53;28.05;;;;;;;;;;5072377;28;20236;-65
2023/03/02 05:28:38;;;;;;;106.15;28.40;;;;;;;;;;5072123;28;20229;-65
2023/03/02 05:31:05;;;;;;;99.82;26.33;;;;;;;;;;5072570;28;20201;-64
2023/03/02 05:33:32;;;;;;;102.10;27.63;;;;;;;;;;5072536;28;20210;-64
2023/03/02 05:36:01;;;;;;;102.53;28.15;;;;;;;;;;5072528;28;20232;-64
2023/03/02 05:38:30;;;;;;;97.47;28.67;;;;;;;;;;5073492;28;20201;-64
2023/03/02 05:40:57;;;;;;;110.15;28.67;;;;;;;;;;5074235;28;20227;-64
2023/03/02 05:43:24;;;;;;;99.07;26.40;;;;;;;;;;5073945;28;20205;-65
2023/03/02 05:45:51;;;;;;;103.53;27.63;;;;;;;;;;5074461;28;20232;-65
2023/03/02 05:48:18;;;;;;;101.35;26.92;;;;;;;;;;5071507;28;20225;-65
2023/03/02 05:50:45;;;;;;;109.78;35.63;;;;;;;;;;5071825;28;20205;-65
2023/03/02 05:53:14;;;;;;;103.53;31.95;;;;;;;;;;5072317;28;20212;-65
2023/03/02 05:55:41;;;;;;;103.88;31.27;;;;;;;;;;5072100;28;20225;-64
2023/03/02 05:58:13;;;;;;;101.68;32.30;;;;;;;;;;5071958;28;20284;-65
2023/03/02 06:00:40;;;;;;;100.47;30.23;;;;;;;;;;5071764;28;20619;-65
2023/03/02 06:03:07;;;;;;;104.60;32.70;;;;;;;;;;5071658;28;20216;-65
2023/03/02 06:05:34;;;;;;;98.78;30.65;;;;;;;;;;5071757;28;20227;-65
2023/03/02 06:08:01;;;;;;;100.50;27.83;;;;;;;;;;5071676;28;20232;-65
2023/03/02 06:10:30;;;;;;;95.95;27.13;;;;;;;;;;5071549;28;20209;-64
2023/03/02 06:12:57;;;;;;;101.05;29.40;;;;;;;;;;5071783;28;20216;-64
2023/03/02 06:15:24;;;;;;;97.82;27.20;;;;;;;;;;5071606;28;20740;-65
2023/03/02 06:17:51;;;;;;;100.35;29.55;;;;;;;;;;5071649;28;20204;-65
2023/03/02 06:20:18;;;;;;;107.15;28.55;;;;;;;;;;5071309;28;20213;-65
2023/03/02 06:22:46;;;;;;;95.45;27.45;;;;;;;;;;5071825;28;20244;-65
2023/03/02 06:25:16;;;;;;;100.25;28.30;;;;;;;;;;5071578;28;20236;-65
2023/03/02 06:27:44;;;;;;;107.50;32.13;;;;;;;;;;5071702;28;20229;-65
2023/03/02 06:30:14;;;;;;;104.68;29.58;;;;;;;;;;5071255;28;20209;-65
2023/03/02 06:32:41;;;;;;;101.65;30.27;;;;;;;;;;5071669;28;20209;-65
2023/03/02 06:35:08;;;;;;;105.38;29.90;;;;;;;;;;5071512;28;20231;-65
2023/03/02 06:37:36;;;;;;;101.28;26.05;;;;;;;;;;5071660;28;20337;-65
2023/03/02 06:40:07;;;;;;;98.13;27.95;;;;;;;;;;5070902;28;20210;-65
2023/03/02 06:42:34;;;;;;;98.93;26.67;;;;;;;;;;5071470;28;20299;-65
2023/03/02 06:45:02;;;;;;;98.07;27.55;;;;;;;;;;5071156;28;20225;-65
2023/03/02 06:47:30;;;;;;;96.97;26.52;;;;;;;;;;5071491;28;20224;-65
2023/03/02 06:49:57;;;;;;;101.00;26.33;;;;;;;;;;5071090;28;20677;-65
2023/03/02 06:52:25;;;;;;;101.93;27.67;;;;;;;;;;5070747;28;20207;-65
2023/03/02 06:54:52;;;;;;;100.25;25.45;;;;;;;;;;5071174;28;20296;-65
2023/03/02 06:57:19;;;;;;;97.00;27.77;;;;;;;;;;5071407;28;20585;-65
2023/03/02 06:59:46;;;;;;;105.72;28.70;;;;;;;;;;5074234;28;20201;-65
2023/03/02 07:02:14;;;;;;;99.72;28.10;;;;;;;;;;5075436;28;20209;-65
2023/03/02 07:04:41;;;;;;;96.97;27.08;;;;;;;;;;5075389;28;20705;-65
2023/03/02 07:07:08;;;;;;;99.32;27.25;;;;;;;;;;5075637;28;20212;-65
2023/03/02 07:09:35;;;;;;;100.03;27.58;;;;;;;;;;5074847;28;20210;-65
2023/03/02 07:12:03;;;;;;;99.05;28.65;;;;;;;;;;5075161;28;20228;-65
2023/03/02 07:14:30;;;;;;;103.85;29.20;;;;;;;;;;5075243;28;20552;-65
2023/03/02 07:16:58;;;;;;;99.10;27.83;;;;;;;;;;5074944;28;20226;-66
2023/03/02 07:19:27;;;;;;;101.22;28.33;;;;;;;;;;5074765;28;20678;-66
2023/03/02 07:21:54;;;;;;;103.47;29.17;;;;;;;;;;5075104;28;20205;-66
2023/03/02 07:24:22;;;;;;;102.10;29.33;;;;;;;;;;5074720;28;20563;-66
2023/03/02 07:26:49;;;;;;;102.32;31.50;;;;;;;;;;5075106;28;20300;-66
2023/03/02 07:29:16;;;;;;;104.40;32.55;;;;;;;;;;5074340;28;20234;-66
2023/03/02 07:31:43;;;;;;;112.75;33.88;;;;;;;;;;5074997;28;20304;-66
2023/03/02 07:34:10;;;;;;;109.75;33.65;;;;;;;;;;5074815;28;20201;-66
2023/03/02 07:36:39;;;;;;;114.57;33.63;;;;;;;;;;5074624;28;20235;-66
2023/03/02 07:39:06;;;;;;;103.45;31.45;;;;;;;;;;5074281;28;20203;-66
2023/03/02 07:41:33;;;;;;;110.03;34.25;;;;;;;;;;5074971;28;20207;-66
2023/03/02 07:44:00;;;;;;;104.45;30.23;;;;;;;;;;5074497;28;20669;-66
2023/03/02 07:46:27;;;;;;;106.93;31.00;;;;;;;;;;5074721;28;20228;-66
2023/03/02 07:48:54;;;;;;;103.53;31.90;;;;;;;;;;5074148;28;20231;-66
2023/03/02 07:51:21;;;;;;;109.43;32.30;;;;;;;;;;5074917;28;20243;-66
2023/03/02 07:53:49;;;;;;;102.68;30.65;;;;;;;;;;5074423;28;20683;-66
2023/03/02 07:56:17;;;;;;;99.85;30.25;;;;;;;;;;5074424;28;20221;-66
2023/03/02 07:58:44;;;;;;;100.63;29.60;;;;;;;;;;5074083;28;20204;-66
2023/03/02 08:01:12;;;;;;;96.53;28.38;;;;;;;;;;5074290;28;20557;-66
2023/03/02 08:03:39;;;;;;;96.47;28.48;;;;;;;;;;5074168;28;20220;-66
2023/03/02 08:06:06;;;;;;;93.50;25.58;;;;;;;;;;5074069;28;20224;-66
2023/03/02 08:08:34;;;;;;;93.07;25.02;;;;;;;;;;5074163;28;20702;-66
2023/03/02 08:11:06;;;;;;;90.55;24.73;;;;;;;;;;5073382;28;20218;-66
2023/03/02 08:13:33;;;;;;;90.72;24.25;;;;;;;;;;5074264;28;20205;-66
2023/03/02 08:16:01;;;;;;;90.57;24.08;;;;;;;;;;5074106;28;20225;-66
2023/03/02 08:18:28;;;;;;;90.00;24.00;;;;;;;;;;5073819;28;20277;-66
2023/03/02 08:20:55;;;;;;;99.32;25.48;;;;;;;;;;5073921;28;20208;-66
2023/03/02 08:23:22;;;;;;;90.15;23.13;;;;;;;;;;5073819;28;20248;-66
2023/03/02 08:25:50;;;;;;;90.10;22.60;;;;;;;;;;5073771;28;20258;-66
2023/03/02 08:28:18;;;;;;;87.35;22.40;;;;;;;;;;5073917;28;20232;-66
2023/03/02 08:30:45;;;;;;;89.88;21.80;;;;;;;;;;5073578;28;20580;-66
2023/03/02 08:33:12;;;;;;;94.82;24.00;;;;;;;;;;5073607;28;20208;-66
2023/03/02 08:35:39;;;;;;;86.38;21.70;;;;;;;;;;5073803;28;20225;-66
2023/03/02 08:38:06;;;;;;;87.07;21.67;;;;;;;;;;5073836;28;20203;-66
2023/03/02 08:40:33;;;;;;;82.70;19.85;;;;;;;;;;5073273;28;20681;-66
2023/03/02 08:43:00;;;;;;;89.03;23.70;;;;;;;;;;5073451;28;20212;-66
2023/03/02 08:45:29;;;;;;;86.80;21.80;;;;;;;;;;5073460;28;20225;-66
2023/03/02 08:47:56;;;;;;;82.65;20.90;;;;;;;;;;5073146;28;20607;-66
2023/03/02 08:50:23;;;;;;;87.65;22.42;;;;;;;;;;5073178;28;20215;-67
2023/03/02 08:52:50;;;;;;;84.28;20.55;;;;;;;;;;5073375;28;20205;-66
2023/03/02 08:55:18;;;;;;;84.50;20.85;;;;;;;;;;5073300;28;20229;-66
2023/03/02 08:57:45;;;;;;;87.65;20.90;;;;;;;;;;5073157;28;20266;-66
2023/03/02 09:00:15;;;;;;;85.28;20.45;;;;;;;;;;5072589;28;20205;-67
2023/03/02 09:02:43;;;;;;;83.28;20.00;;;;;;;;;;5073412;28;20213;-67
2023/03/02 09:05:11;;;;;;;79.97;18.00;;;;;;;;;;5073061;28;20725;-67
2023/03/02 09:07:38;;;;;;;83.40;19.92;;;;;;;;;;5072789;28;20213;-66
2023/03/02 09:10:05;;;;;;;84.10;18.92;;;;;;;;;;5072629;28;20201;-67
2023/03/02 09:12:33;;;;;;;82.38;21.50;;;;;;;;;;5072781;28;20205;-67
2023/03/02 09:15:00;;;;;;;83.90;19.55;;;;;;;;;;5072552;28;20678;-66
2023/03/02 09:17:27;;;;;;;85.63;19.30;;;;;;;;;;5072954;28;20224;-66
2023/03/02 09:19:55;;;;;;;80.95;18.00;;;;;;;;;;5072388;28;20666;-66
2023/03/02 09:22:22;;;;;;;82.63;19.23;;;;;;;;;;5072839;28;20212;-67
2023/03/02 09:24:49;;;;;;;81.72;19.08;;;;;;;;;;5072492;28;20213;-67
2023/03/02 09:27:16;;;;;;;82.45;17.83;;;;;;;;;;5072377;28;20215;-67
2023/03/02 09:29:44;;;;;;;87.32;21.35;;;;;;;;;;5072107;28;20224;-67
2023/03/02 09:32:12;;;;;;;82.50;19.25;;;;;;;;;;5072669;28;20213;-66
2023/03/02 09:34:39;;;;;;;82.70;19.08;;;;;;;;;;5072559;28;20209;-66
2023/03/02 09:37:08;;;;;;;81.30;19.13;;;;;;;;;;5072723;28;20673;-66
2023/03/02 09:39:35;;;;;;;81.90;19.60;;;;;;;;;;5072019;28;20209;-67
2023/03/02 09:42:09;;;;;;;81.77;19.40;;;;;;;;;;5072283;28;20236;-67
2023/03/02 09:44:44;;;;;;;79.68;17.17;;;;;;;;;;5072518;28;20815;-66
2023/03/02 09:47:16;;;;;;;81.27;20.53;;;;;;;;;;5072396;28;20592;-66
2023/03/02 09:49:52;;;;;;;81.63;18.73;;;;;;;;;;5071909;28;20487;-66
2023/03/02 09:52:28;;;;;;;80.50;18.30;;;;;;;;;;5072201;28;20209;-67
2023/03/02 09:54:55;;;;;;;81.75;18.83;;;;;;;;;;5072237;28;20641;-66
2023/03/02 09:57:24;;;;;;;82.20;19.38;;;;;;;;;;5071944;28;20209;-66
2023/03/02 09:59:56;;;;;;;84.87;19.53;;;;;;;;;;5071716;28;20674;-67
2023/03/02 10:02:25;;;;;;;82.87;21.20;;;;;;;;;;5072099;28;20451;-67
2023/03/02 10:04:54;;;;;;;78.13;18.70;;;;;;;;;;5071661;28;20955;-67
2023/03/02 10:07:27;;;;;;;79.83;19.00;;;;;;;;;;5071769;28;20959;-65
2023/03/02 10:09:54;;;;;;;80.53;20.20;;;;;;;;;;5071415;28;20474;-67
2023/03/02 10:12:36;;;;;;;81.30;21.00;;;;;;;;;;5071944;28;20443;-65
2023/03/02 10:15:04;;;;;;;80.77;20.40;;;;;;;;;;5072095;28;20471;-65
2023/03/02 10:17:40;;;;;;;78.00;18.27;;;;;;;;;;5071606;28;20458;-67
2023/03/02 10:20:14;;;;;;;78.77;18.93;;;;;;;;;;5071612;28;20762;-67
2023/03/02 10:22:45;;;;;;;77.23;19.90;;;;;;;;;;5071879;28;20477;-67
2023/03/02 10:25:18;;;;;;;77.87;19.47;;;;;;;;;;5071440;28;20544;-67
2023/03/02 10:27:50;;;;;;;81.37;20.80;;;;;;;;;;5071545;28;20458;-67
2023/03/02 10:30:20;;;;;;;82.00;19.30;;;;;;;;;;5071359;28;20493;-67
2023/03/02 10:32:49;;;;;;;81.50;19.17;;;;;;;;;;5071687;28;20444;-67
2023/03/02 10:35:19;;;;;;;79.40;19.23;;;;;;;;;;5071567;28;20482;-68
2023/03/02 10:37:48;;;;;;;78.37;19.40;;;;;;;;;;5071634;28;20455;-65
2023/03/02 10:40:24;;;;;;;82.97;19.90;;;;;;;;;;5071067;28;20455;-67
2023/03/02 10:42:51;;;;;;;77.87;18.90;;;;;;;;;;5071775;28;20450;-67
2023/03/02 10:45:22;;;;;;;77.60;19.70;;;;;;;;;;5071491;28;20471;-67
2023/03/02 10:47:59;;;;;;;184.23;71.30;;;;;;;;;;5071375;28;20450;-67
2023/03/02 10:50:29;;;;;;;80.97;22.37;;;;;;;;;;5071211;28;20957;-68
2023/03/02 10:52:57;;;;;;;78.73;19.77;;;;;;;;;;5071669;28;20454;-67
2023/03/02 10:55:25;;;;;;;75.63;19.67;;;;;;;;;;5071219;28;20479;-67
2023/03/02 10:58:02;;;;;;;75.37;18.67;;;;;;;;;;5071680;28;20497;-67
2023/03/02 11:00:30;;;;;;;75.97;18.43;;;;;;;;;;5071320;28;20796;-68
2023/03/02 11:02:59;;;;;;;78.30;21.10;;;;;;;;;;5071374;28;20450;-67
2023/03/02 11:05:31;;;;;;;78.80;20.87;;;;;;;;;;5071159;28;20980;-66
2023/03/02 11:08:00;;;;;;;75.47;19.43;;;;;;;;;;5071192;28;20439;-65
2023/03/02 11:10:30;;;;;;;78.80;19.50;;;;;;;;;;5070731;28;21007;-67
2023/03/02 11:12:58;;;;;;;77.57;20.67;;;;;;;;;;5071255;28;20490;-68
2023/03/02 11:15:26;;;;;;;76.47;18.90;;;;;;;;;;5071730;28;20477;-67
2023/03/02 11:17:55;;;;;;;76.70;20.30;;;;;;;;;;5071063;28;20456;-68
2023/03/02 11:20:24;;;;;;;78.50;19.23;;;;;;;;;;5071068;28;20450;-68
2023/03/02 11:22:59;;;;;;;79.43;18.90;;;;;;;;;;5071183;28;20446;-68
2023/03/02 11:25:30;;;;;;;77.07;19.23;;;;;;;;;;5070874;28;20486;-68
2023/03/02 11:28:00;;;;;;;77.67;20.53;;;;;;;;;;5070923;28;20454;-68
2023/03/02 11:30:28;;;;;;;76.60;19.17;;;;;;;;;;5071094;28;20487;-68
2023/03/02 11:32:59;;;;;;;74.07;18.90;;;;;;;;;;5071294;28;20455;-68
2023/03/02 11:35:30;;;;;;;76.40;18.97;;;;;;;;;;5070847;28;20975;-66
2023/03/02 11:38:00;;;;;;;76.13;20.37;;;;;;;;;;5070719;28;20454;-66
2023/03/02 11:40:31;;;;;;;74.70;19.97;;;;;;;;;;5070779;28;20438;-68
2023/03/02 11:42:59;;;;;;;75.97;19.73;;;;;;;;;;5071102;28;20462;-66
2023/03/02 11:45:28;;;;;;;75.40;20.13;;;;;;;;;;5071743;28;20824;-66
2023/03/02 11:47:58;;;;;;;75.70;19.40;;;;;;;;;;5074560;28;20447;-66
2023/03/02 11:50:26;;;;;;;75.87;18.70;;;;;;;;;;5074506;28;20847;-66
2023/03/02 11:52:55;;;;;;;77.27;20.40;;;;;;;;;;5074433;28;20443;-66
2023/03/02 11:55:23;;;;;;;78.50;19.13;;;;;;;;;;5074572;28;20470;-66
2023/03/02 11:57:53;;;;;;;74.40;19.50;;;;;;;;;;5074386;28;20444;-66
2023/03/02 12:00:28;;;;;;;76.10;19.50;;;;;;;;;;5074205;28;20442;-66
2023/03/02 12:03:02;;;;;;;76.23;18.27;;;;;;;;;;5074332;28;20447;-66
2023/03/02 12:05:31;;;;;;;75.40;19.87;;;;;;;;;;5074064;28;20479;-66
2023/03/02 12:07:58;;;;;;;74.67;19.53;;;;;;;;;;5074309;28;20447;-68
2023/03/02 12:10:27;;;;;;;75.10;20.20;;;;;;;;;;5074086;28;20860;-69
2023/03/02 12:13:03;;;;;;;77.70;20.33;;;;;;;;;;5074129;28;20451;-66
2023/03/02 12:15:39;;;;;;;76.37;19.07;;;;;;;;;;5074033;28;20474;-68
2023/03/02 12:18:30;;;;;;;75.13;19.30;;;;;;;;;;5074539;28;20451;-69
2023/03/02 12:21:01;;;;;;;73.27;19.10;;;;;;;;;;5058873;28;20455;-69
2023/03/02 12:23:28;;;;;;;71.50;18.40;;;;;;;;;;5073783;28;20958;-68
2023/03/02 12:26:02;;;;;;;73.83;19.67;;;;;;;;;;5073721;28;20471;-68
2023/03/02 12:28:35;;;;;;;73.27;19.40;;;;;;;;;;5073666;28;20439;-68
2023/03/02 12:31:04;;;;;;;77.37;21.00;;;;;;;;;;5073584;28;20439;-68
2023/03/02 12:33:31;;;;;;;72.17;17.97;;;;;;;;;;5073945;28;20800;-68
2023/03/02 12:36:04;;;;;;;71.87;17.60;;;;;;;;;;5073561;28;20482;-69
2023/03/02 12:38:33;;;;;;;71.37;18.00;;;;;;;;;;5073422;28;20831;-69
2023/03/02 12:41:12;;;;;;;76.37;19.10;;;;;;;;;;5073270;28;20542;-68
2023/03/02 12:43:44;;;;;;;69.57;17.30;;;;;;;;;;5073581;28;20798;-68
2023/03/02 12:46:25;;;;;;;71.47;17.27;;;;;;;;;;5073728;28;20467;-69
2023/03/02 12:48:57;;;;;;;72.57;17.63;;;;;;;;;;5073105;28;20443;-68
2023/03/02 12:51:26;;;;;;;75.17;19.00;;;;;;;;;;5073320;28;20458;-68
2023/03/02 12:54:02;;;;;;;72.13;18.10;;;;;;;;;;5073469;28;20457;-69
2023/03/02 12:56:29;;;;;;;78.43;17.10;;;;;;;;;;5073213;28;20846;-69
2023/03/02 12:58:58;;;;;;;74.33;18.33;;;;;;;;;;5072873;28;20462;-68
2023/03/02 13:01:26;;;;;;;70.73;17.10;;;;;;;;;;5073437;28;20966;-69
2023/03/02 13:03:54;;;;;;;70.37;17.73;;;;;;;;;;5073161;28;20451;-68
2023/03/02 13:06:22;;;;;;;72.90;18.17;;;;;;;;;;5073187;28;20474;-66
2023/03/02 13:08:51;;;;;;;70.50;17.87;;;;;;;;;;5072744;28;20490;-66
2023/03/02 13:11:21;;;;;;;69.23;16.20;;;;;;;;;;5073307;28;20450;-66
2023/03/02 13:13:49;;;;;;;70.67;16.73;;;;;;;;;;5073274;28;20469;-69
2023/03/02 13:16:22;;;;;;;68.90;17.00;;;;;;;;;;5072703;28;21016;-67
2023/03/02 13:18:52;;;;;;;70.50;17.17;;;;;;;;;;5072620;28;20452;-66
2023/03/02 13:21:20;;;;;;;71.07;16.93;;;;;;;;;;5072909;28;20451;-66
2023/03/02 13:23:49;;;;;;;75.03;18.17;;;;;;;;;;5073024;28;20534;-66
2023/03/02 13:26:25;;;;;;;72.03;17.70;;;;;;;;;;5072370;28;20855;-66
2023/03/02 13:29:01;;;;;;;69.20;16.27;;;;;;;;;;5072401;28;20446;-66
2023/03/02 13:31:30;;;;;;;72.17;18.03;;;;;;;;;;5073035;28;20446;-66
2023/03/02 13:33:58;;;;;;;71.03;17.13;;;;;;;;;;5072713;28;20524;-66
2023/03/02 13:36:26;;;;;;;70.63;17.57;;;;;;;;;;5072434;28;20478;-67
2023/03/02 13:38:54;;;;;;;72.30;17.27;;;;;;;;;;5072156;28;20448;-66
2023/03/02 13:41:22;;;;;;;72.30;16.50;;;;;;;;;;5072525;28;20443;-66
2023/03/02 13:43:50;;;;;;;68.90;16.07;;;;;;;;;;5072618;28;20508;-69
2023/03/02 13:46:28;;;;;;;70.30;17.17;;;;;;;;;;5072353;28;20475;-69
2023/03/02 13:48:57;;;;;;;69.70;17.10;;;;;;;;;;5072109;28;20496;-69
2023/03/02 13:51:25;;;;;;;70.20;17.03;;;;;;;;;;5072099;28;20454;-66
2023/03/02 13:53:54;;;;;;;75.87;16.87;;;;;;;;;;5072138;28;20824;-66
2023/03/02 13:56:23;;;;;;;70.30;16.17;;;;;;;;;;5072430;28;20470;-66
2023/03/02 13:58:50;;;;;;;72.33;17.17;;;;;;;;;;5071970;28;20435;-67
2023/03/02 14:01:18;;;;;;;72.07;16.67;;;;;;;;;;5072183;28;21015;-69
2023/03/02 14:03:45;;;;;;;70.27;16.47;;;;;;;;;;5072203;28;20454;-69
2023/03/02 14:06:13;;;;;;;69.40;16.93;;;;;;;;;;5071996;28;20841;-69
2023/03/02 14:08:40;;;;;;;70.47;17.53;;;;;;;;;;5070888;28;20457;-69
2023/03/02 14:11:08;;;;;;;70.63;17.73;;;;;;;;;;5072449;28;20443;-67
2023/03/02 14:13:37;;;;;;;70.60;16.97;;;;;;;;;;5072031;28;20475;-66
2023/03/02 14:16:04;;;;;;;70.70;17.40;;;;;;;;;;5071798;28;20467;-67
2023/03/02 14:18:36;;;;;;;71.30;18.10;;;;;;;;;;5071728;28;20451;-69
2023/03/02 14:21:03;;;;;;;70.20;17.10;;;;;;;;;;5071988;28;20489;-69
2023/03/02 14:23:32;;;;;;;71.87;19.10;;;;;;;;;;5072043;28;20457;-69
2023/03/02 14:25:59;;;;;;;69.37;16.37;;;;;;;;;;5071522;28;20483;-69